Friday, January 18, 2019, 3:17 AM EST
Back to Local

KBML, Berlin Municipal Airport

Location: Milan, NH, United States Lat: 44.583
Local Time: 3:17 AM EST ( 8:17 GMT) Lon: -71.183
Time Zone: US/Eastern Elev: 1158 ft

Show me the last for .
Show Decoded

2019-01-18 02:52 METAR KBML 180752Z AUTO 00000KT 10SM BKN075 OVC090 M15/M19 A3013 RMK AO2 SLP231
                 T11501189 =
2019-01-18 01:52 METAR KBML 180652Z AUTO 00000KT 10SM OVC110 M16/M19 A3015 RMK AO2 SLP237
                 T11561189 =
2019-01-18 00:52 METAR KBML 180552Z AUTO 00000KT 10SM BKN110 M17/M20 A3016 RMK AO2 SLP244
                 T11671200 11156 21189 58026 =
2019-01-17 23:52 METAR KBML 180452Z AUTO 00000KT 10SM OVC100 M16/M20 A3019 RMK AO2 SLP255
                 T11611200 411061194 =
2019-01-17 22:52 METAR KBML 180352Z AUTO 00000KT 10SM OVC100 M16/M20 A3022 RMK AO2 SLP266
                 T11611200 =
2019-01-17 21:52 METAR KBML 180252Z AUTO 00000KT 10SM OVC110 M17/M20 A3024 RMK AO2 SLP272
                 T11671200 58004 =
2019-01-17 20:52 METAR KBML 180152Z AUTO 00000KT 6SM HZ FEW001 FEW120 M17/M21 A3025 RMK AO2
                 SLP276 T11721206 =
2019-01-17 20:45 METAR KBML 180145Z AUTO 00000KT 4SM HZ FEW001 FEW120 M18/M21 A3025 RMK AO2
                 T11781206 =
2019-01-17 19:52 METAR KBML 180052Z AUTO 00000KT 10SM CLR M18/M21 A3025 RMK AO2 SLP279 T11831211
                 =
2019-01-17 19:07 METAR KBML 180007Z AUTO 00000KT 10SM CLR M18/M22 A3025 RMK AO2 T11781217 =
2019-01-17 18:59 METAR KBML 172359Z AUTO 00000KT 2SM HZ FEW001 M18/M21 A3025 RMK AO2 T11831211 =
2019-01-17 18:52 METAR KBML 172352Z AUTO 00000KT 1 1/4SM BR FEW001 M18/M21 A3025 RMK AO2 SLP279
                 T11831206 11106 21189 53004 =
2019-01-17 18:50 METAR KBML 172350Z AUTO 00000KT 1 3/4SM HZ FEW001 M18/M21 A3025 RMK AO2 =
2019-01-17 17:52 METAR KBML 172252Z AUTO 00000KT 10SM CLR M17/M22 A3024 RMK AO2 SLP274 T11671217
                 =
2019-01-17 16:52 METAR KBML 172152Z AUTO 36004KT 10SM CLR M13/M22 A3024 RMK AO2 SLP272 T11331217
                 =
2019-01-17 15:52 METAR KBML 172052Z AUTO 00000KT 10SM CLR M11/M23 A3024 RMK AO2 SLP270 T11111228
                 56014 =
2019-01-17 14:52 METAR KBML 171952Z AUTO VRB03KT 10SM CLR M11/M23 A3025 RMK AO2 SLP273 T11061228
                 =
2019-01-17 13:52 METAR KBML 171852Z AUTO VRB06KT 10SM CLR M11/M23 A3026 RMK AO2 SLP276 T11111228
                 =
2019-01-17 12:52 METAR KBML 171752Z AUTO 32006KT 10SM CLR M12/M23 A3028 RMK AO2 SLP283 T11221233
                 11122 21183 58014 =
2019-01-17 11:52 METAR KBML 171652Z AUTO VRB04KT 10SM CLR M13/M23 A3030 RMK AO2 SLP289 T11281233
                 =
2019-01-17 10:52 METAR KBML 171552Z AUTO 00000KT 10SM CLR M15/M23 A3032 RMK AO2 SLP297 T11501233
                 =
2019-01-17 09:52 METAR KBML 171452Z AUTO 00000KT 10SM CLR M16/M23 A3032 RMK AO2 SLP298 T11561228
                 51020 =
2019-01-17 08:52 METAR KBML 171352Z AUTO 00000KT 10SM CLR M17/M23 A3031 RMK AO2 SLP292 T11721233
                 =
2019-01-17 07:52 METAR KBML 171252Z AUTO VRB04KT 10SM CLR M18/M23 A3028 RMK AO2 SLP282 T11831233
                 =
2019-01-17 06:52 METAR KBML 171152Z AUTO VRB06KT 10SM CLR M18/M23 A3026 RMK AO2 SLP274 T11831233
                 11144 21194 53021 =
2019-01-17 05:52 METAR KBML 171052Z AUTO VRB04KT 10SM CLR M18/M23 A3024 RMK AO2 SLP267 T11781228
                 =
2019-01-17 04:52 METAR KBML 170952Z AUTO 00000KT 10SM FEW024 M18/M23 A3021 RMK AO2 SLP255
                 T11831228 =
2019-01-17 03:52 METAR KBML 170852Z AUTO VRB04KT 10SM CLR M17/M22 A3020 RMK AO2 SLP251 T11671217
                 51029 =

Support USWX by starting your Amazon purchase here.